sensor_id;sensor_type;location;lat;lon;timestamp;temperature;humidity
48768;DHT22;34933;40.968;14.538;2022-09-02T00:01:55;20.80;99.90
48768;DHT22;34933;40.968;14.538;2022-09-02T00:04:40;21.20;99.90
48768;DHT22;34933;40.968;14.538;2022-09-02T00:07:25;21.50;99.90
48768;DHT22;34933;40.968;14.538;2022-09-02T00:10:09;21.60;99.90
48768;DHT22;34933;40.968;14.538;2022-09-02T00:12:54;21.70;99.90
48768;DHT22;34933;40.968;14.538;2022-09-02T00:15:38;21.70;99.90
48768;DHT22;34933;40.968;14.538;2022-09-02T00:18:24;21.60;99.90
48768;DHT22;34933;40.968;14.538;2022-09-02T00:21:11;21.40;99.90
48768;DHT22;34933;40.968;14.538;2022-09-02T00:23:57;21.20;99.90
48768;DHT22;34933;40.968;14.538;2022-09-02T00:26:44;21.10;99.90
48768;DHT22;34933;40.968;14.538;2022-09-02T00:29:29;20.90;99.90
48768;DHT22;34933;40.968;14.538;2022-09-02T00:32:14;20.90;99.90
48768;DHT22;34933;40.968;14.538;2022-09-02T00:34:58;20.80;99.90
48768;DHT22;34933;40.968;14.538;2022-09-02T00:37:44;20.60;99.90
48768;DHT22;34933;40.968;14.538;2022-09-02T00:40:29;20.40;99.90
48768;DHT22;34933;40.968;14.538;2022-09-02T00:43:36;20.20;99.90
48768;DHT22;34933;40.968;14.538;2022-09-02T00:46:23;20.10;99.90
48768;DHT22;34933;40.968;14.538;2022-09-02T00:49:23;20.00;99.90
48768;DHT22;34933;40.968;14.538;2022-09-02T00:52:12;20.10;99.90
48768;DHT22;34933;40.968;14.538;2022-09-02T00:55:10;20.10;99.90
48768;DHT22;34933;40.968;14.538;2022-09-02T00:58:06;20.10;99.90
48768;DHT22;34933;40.968;14.538;2022-09-02T01:00:55;20.00;99.90
48768;DHT22;34933;40.968;14.538;2022-09-02T01:03:41;19.90;99.90
48768;DHT22;34933;40.968;14.538;2022-09-02T01:06:27;19.80;99.90
48768;DHT22;34933;40.968;14.538;2022-09-02T01:09:16;19.80;99.90
48768;DHT22;34933;40.968;14.538;2022-09-02T01:12:02;19.70;99.90
48768;DHT22;34933;40.968;14.538;2022-09-02T01:14:47;19.70;99.90
48768;DHT22;34933;40.968;14.538;2022-09-02T01:17:32;19.70;99.90
48768;DHT22;34933;40.968;14.538;2022-09-02T01:20:22;19.70;99.90
48768;DHT22;34933;40.968;14.538;2022-09-02T01:23:07;19.60;99.90
48768;DHT22;34933;40.968;14.538;2022-09-02T01:25:51;19.70;99.90
48768;DHT22;34933;40.968;14.538;2022-09-02T01:28:36;19.70;99.90
48768;DHT22;34933;40.968;14.538;2022-09-02T01:31:21;19.60;99.90
48768;DHT22;34933;40.968;14.538;2022-09-02T01:34:06;19.60;99.90
48768;DHT22;34933;40.968;14.538;2022-09-02T01:36:50;19.50;99.90
48768;DHT22;34933;40.968;14.538;2022-09-02T01:39:35;19.40;99.90
48768;DHT22;34933;40.968;14.538;2022-09-02T01:42:20;19.30;99.90
48768;DHT22;34933;40.968;14.538;2022-09-02T01:45:06;19.10;99.90
48768;DHT22;34933;40.968;14.538;2022-09-02T01:47:52;19.00;99.90
48768;DHT22;34933;40.968;14.538;2022-09-02T01:50:41;19.00;99.90
48768;DHT22;34933;40.968;14.538;2022-09-02T01:53:27;19.00;99.90
48768;DHT22;34933;40.968;14.538;2022-09-02T01:56:13;19.00;99.90
48768;DHT22;34933;40.968;14.538;2022-09-02T01:58:58;18.90;99.90
48768;DHT22;34933;40.968;14.538;2022-09-02T02:01:44;18.90;99.90
48768;DHT22;34933;40.968;14.538;2022-09-02T02:04:29;18.90;99.90
48768;DHT22;34933;40.968;14.538;2022-09-02T02:07:16;19.00;99.90
48768;DHT22;34933;40.968;14.538;2022-09-02T02:10:03;19.00;99.90
48768;DHT22;34933;40.968;14.538;2022-09-02T02:12:48;19.00;99.90
48768;DHT22;34933;40.968;14.538;2022-09-02T02:15:40;18.90;99.90
48768;DHT22;34933;40.968;14.538;2022-09-02T02:18:24;18.80;99.90
48768;DHT22;34933;40.968;14.538;2022-09-02T02:21:11;18.90;99.90
48768;DHT22;34933;40.968;14.538;2022-09-02T02:23:56;18.90;99.90
48768;DHT22;34933;40.968;14.538;2022-09-02T02:26:45;18.80;99.90
48768;DHT22;34933;40.968;14.538;2022-09-02T02:29:30;18.80;99.90
48768;DHT22;34933;40.968;14.538;2022-09-02T02:32:15;18.80;99.90
48768;DHT22;34933;40.968;14.538;2022-09-02T02:35:03;18.80;99.90
48768;DHT22;34933;40.968;14.538;2022-09-02T02:37:50;18.80;99.90
48768;DHT22;34933;40.968;14.538;2022-09-02T02:40:35;18.90;99.90
48768;DHT22;34933;40.968;14.538;2022-09-02T02:43:21;18.90;99.90
48768;DHT22;34933;40.968;14.538;2022-09-02T02:46:06;18.90;99.90
48768;DHT22;34933;40.968;14.538;2022-09-02T02:48:51;18.90;99.90
48768;DHT22;34933;40.968;14.538;2022-09-02T02:51:36;18.80;99.90
48768;DHT22;34933;40.968;14.538;2022-09-02T02:54:21;18.80;99.90
48768;DHT22;34933;40.968;14.538;2022-09-02T02:57:07;18.80;99.90
48768;DHT22;34933;40.968;14.538;2022-09-02T02:59:52;18.80;99.90
48768;DHT22;34933;40.968;14.538;2022-09-02T03:02:38;18.80;99.90
48768;DHT22;34933;40.968;14.538;2022-09-02T03:05:22;18.80;99.90
48768;DHT22;34933;40.968;14.538;2022-09-02T03:08:09;18.80;99.90
48768;DHT22;34933;40.968;14.538;2022-09-02T03:10:55;18.70;99.90
48768;DHT22;34933;40.968;14.538;2022-09-02T03:13:43;18.70;99.90
48768;DHT22;34933;40.968;14.538;2022-09-02T03:16:28;18.70;99.90
48768;DHT22;34933;40.968;14.538;2022-09-02T03:19:13;18.60;99.90
48768;DHT22;34933;40.968;14.538;2022-09-02T03:21:57;18.50;99.90
48768;DHT22;34933;40.968;14.538;2022-09-02T03:24:42;18.50;99.90
48768;DHT22;34933;40.968;14.538;2022-09-02T03:27:28;18.50;99.90
48768;DHT22;34933;40.968;14.538;2022-09-02T03:30:17;18.50;99.90
48768;DHT22;34933;40.968;14.538;2022-09-02T03:33:03;18.50;99.90
48768;DHT22;34933;40.968;14.538;2022-09-02T03:35:50;18.50;99.90
48768;DHT22;34933;40.968;14.538;2022-09-02T03:38:35;18.60;99.90
48768;DHT22;34933;40.968;14.538;2022-09-02T03:41:20;18.60;99.90
48768;DHT22;34933;40.968;14.538;2022-09-02T03:44:07;18.60;99.90
48768;DHT22;34933;40.968;14.538;2022-09-02T03:46:52;18.60;99.90
48768;DHT22;34933;40.968;14.538;2022-09-02T03:49:37;18.50;99.90
48768;DHT22;34933;40.968;14.538;2022-09-02T03:52:23;18.50;99.90
48768;DHT22;34933;40.968;14.538;2022-09-02T03:55:08;18.40;99.90
48768;DHT22;34933;40.968;14.538;2022-09-02T03:57:53;18.50;99.90
48768;DHT22;34933;40.968;14.538;2022-09-02T04:00:40;18.50;99.90
48768;DHT22;34933;40.968;14.538;2022-09-02T04:03:26;18.30;99.90
48768;DHT22;34933;40.968;14.538;2022-09-02T04:06:12;18.20;99.90
48768;DHT22;34933;40.968;14.538;2022-09-02T04:08:57;18.30;99.90
48768;DHT22;34933;40.968;14.538;2022-09-02T04:11:41;18.30;99.90
48768;DHT22;34933;40.968;14.538;2022-09-02T04:14:27;18.20;99.90
48768;DHT22;34933;40.968;14.538;2022-09-02T04:17:12;18.20;99.90
48768;DHT22;34933;40.968;14.538;2022-09-02T04:19:57;18.30;99.90
48768;DHT22;34933;40.968;14.538;2022-09-02T04:22:43;18.20;99.90
48768;DHT22;34933;40.968;14.538;2022-09-02T04:25:28;18.20;99.90
48768;DHT22;34933;40.968;14.538;2022-09-02T04:28:14;18.20;99.90
48768;DHT22;34933;40.968;14.538;2022-09-02T04:30:59;18.20;99.90
48768;DHT22;34933;40.968;14.538;2022-09-02T04:33:47;18.30;99.90
48768;DHT22;34933;40.968;14.538;2022-09-02T04:36:34;18.30;99.90
48768;DHT22;34933;40.968;14.538;2022-09-02T04:39:22;18.30;99.90
48768;DHT22;34933;40.968;14.538;2022-09-02T04:42:07;18.30;99.90
48768;DHT22;34933;40.968;14.538;2022-09-02T04:44:52;18.30;99.90
48768;DHT22;34933;40.968;14.538;2022-09-02T04:47:39;18.30;99.90
48768;DHT22;34933;40.968;14.538;2022-09-02T04:50:26;18.30;99.90
48768;DHT22;34933;40.968;14.538;2022-09-02T04:53:15;18.30;99.90
48768;DHT22;34933;40.968;14.538;2022-09-02T04:56:07;18.30;99.90
48768;DHT22;34933;40.968;14.538;2022-09-02T04:58:54;18.40;99.90
48768;DHT22;34933;40.968;14.538;2022-09-02T05:01:39;18.40;99.90
48768;DHT22;34933;40.968;14.538;2022-09-02T05:04:31;18.50;99.90
48768;DHT22;34933;40.968;14.538;2022-09-02T05:07:18;18.60;99.90
48768;DHT22;34933;40.968;14.538;2022-09-02T05:10:06;18.70;99.90
48768;DHT22;34933;40.968;14.538;2022-09-02T05:12:56;18.80;99.90
48768;DHT22;34933;40.968;14.538;2022-09-02T05:15:41;18.80;99.90
48768;DHT22;34933;40.968;14.538;2022-09-02T05:18:29;18.80;99.90
48768;DHT22;34933;40.968;14.538;2022-09-02T05:21:15;18.80;99.90
48768;DHT22;34933;40.968;14.538;2022-09-02T05:24:00;18.80;99.90
48768;DHT22;34933;40.968;14.538;2022-09-02T05:26:44;18.90;99.90
48768;DHT22;34933;40.968;14.538;2022-09-02T05:29:30;18.90;99.90
48768;DHT22;34933;40.968;14.538;2022-09-02T05:32:15;18.90;99.90
48768;DHT22;34933;40.968;14.538;2022-09-02T05:35:02;18.90;99.90
48768;DHT22;34933;40.968;14.538;2022-09-02T05:37:49;18.90;99.90
48768;DHT22;34933;40.968;14.538;2022-09-02T05:40:36;19.00;99.90
48768;DHT22;34933;40.968;14.538;2022-09-02T05:43:22;19.10;99.90
48768;DHT22;34933;40.968;14.538;2022-09-02T05:46:09;19.20;99.90
48768;DHT22;34933;40.968;14.538;2022-09-02T05:48:56;19.40;99.90
48768;DHT22;34933;40.968;14.538;2022-09-02T05:51:57;19.60;99.90
48768;DHT22;34933;40.968;14.538;2022-09-02T05:54:50;19.90;99.90
48768;DHT22;34933;40.968;14.538;2022-09-02T05:57:37;20.10;99.90
48768;DHT22;34933;40.968;14.538;2022-09-02T06:00:25;20.30;99.90
48768;DHT22;34933;40.968;14.538;2022-09-02T06:03:16;20.40;99.90
48768;DHT22;34933;40.968;14.538;2022-09-02T06:06:02;20.60;99.90
48768;DHT22;34933;40.968;14.538;2022-09-02T06:08:47;20.70;99.90
48768;DHT22;34933;40.968;14.538;2022-09-02T06:11:32;20.90;99.90
48768;DHT22;34933;40.968;14.538;2022-09-02T06:14:21;21.10;99.90
48768;DHT22;34933;40.968;14.538;2022-09-02T06:17:08;21.30;99.90
48768;DHT22;34933;40.968;14.538;2022-09-02T06:19:58;21.50;99.90
48768;DHT22;34933;40.968;14.538;2022-09-02T06:22:45;21.50;99.90
48768;DHT22;34933;40.968;14.538;2022-09-02T06:25:30;21.60;99.90
48768;DHT22;34933;40.968;14.538;2022-09-02T06:28:16;21.70;99.90
48768;DHT22;34933;40.968;14.538;2022-09-02T06:31:11;21.80;99.90
48768;DHT22;34933;40.968;14.538;2022-09-02T06:33:57;21.90;99.90
48768;DHT22;34933;40.968;14.538;2022-09-02T06:36:45;21.90;99.90
48768;DHT22;34933;40.968;14.538;2022-09-02T06:39:32;22.00;99.90
48768;DHT22;34933;40.968;14.538;2022-09-02T06:42:17;22.20;99.90
48768;DHT22;34933;40.968;14.538;2022-09-02T06:45:19;22.30;99.90
48768;DHT22;34933;40.968;14.538;2022-09-02T06:48:05;22.30;99.90
48768;DHT22;34933;40.968;14.538;2022-09-02T06:50:52;22.40;99.90
48768;DHT22;34933;40.968;14.538;2022-09-02T06:53:37;22.60;99.90
48768;DHT22;34933;40.968;14.538;2022-09-02T06:56:22;22.70;99.90
48768;DHT22;34933;40.968;14.538;2022-09-02T06:59:07;22.80;99.90
48768;DHT22;34933;40.968;14.538;2022-09-02T07:02:08;22.80;99.90
48768;DHT22;34933;40.968;14.538;2022-09-02T07:04:53;23.00;99.90
48768;DHT22;34933;40.968;14.538;2022-09-02T07:07:53;23.10;99.90
48768;DHT22;34933;40.968;14.538;2022-09-02T07:10:40;23.10;99.90
48768;DHT22;34933;40.968;14.538;2022-09-02T07:13:27;23.20;99.90
48768;DHT22;34933;40.968;14.538;2022-09-02T07:16:12;23.20;99.90
48768;DHT22;34933;40.968;14.538;2022-09-02T07:18:57;23.30;99.90
48768;DHT22;34933;40.968;14.538;2022-09-02T07:21:45;23.50;99.90
48768;DHT22;34933;40.968;14.538;2022-09-02T07:24:30;23.60;99.90
48768;DHT22;34933;40.968;14.538;2022-09-02T07:27:15;23.70;99.90
48768;DHT22;34933;40.968;14.538;2022-09-02T07:30:02;23.80;99.90
48768;DHT22;34933;40.968;14.538;2022-09-02T07:32:48;23.90;99.90
48768;DHT22;34933;40.968;14.538;2022-09-02T07:35:34;24.10;99.90
48768;DHT22;34933;40.968;14.538;2022-09-02T07:38:20;24.10;99.90
48768;DHT22;34933;40.968;14.538;2022-09-02T07:41:07;24.20;99.90
48768;DHT22;34933;40.968;14.538;2022-09-02T07:43:53;24.30;99.90
48768;DHT22;34933;40.968;14.538;2022-09-02T07:46:38;24.40;99.90
48768;DHT22;34933;40.968;14.538;2022-09-02T07:49:23;24.50;99.90
48768;DHT22;34933;40.968;14.538;2022-09-02T07:52:08;24.50;99.90
48768;DHT22;34933;40.968;14.538;2022-09-02T07:54:52;24.60;99.90
48768;DHT22;34933;40.968;14.538;2022-09-02T07:57:37;24.70;99.90
48768;DHT22;34933;40.968;14.538;2022-09-02T08:00:24;24.70;99.90
48768;DHT22;34933;40.968;14.538;2022-09-02T08:03:12;24.70;99.90
48768;DHT22;34933;40.968;14.538;2022-09-02T08:06:02;24.80;99.90
48768;DHT22;34933;40.968;14.538;2022-09-02T08:08:46;24.90;99.90
48768;DHT22;34933;40.968;14.538;2022-09-02T08:11:32;25.00;99.90
48768;DHT22;34933;40.968;14.538;2022-09-02T08:14:24;25.00;99.90
48768;DHT22;34933;40.968;14.538;2022-09-02T08:17:10;25.00;99.90
48768;DHT22;34933;40.968;14.538;2022-09-02T08:19:55;25.10;99.90
48768;DHT22;34933;40.968;14.538;2022-09-02T08:22:40;25.30;99.90
48768;DHT22;34933;40.968;14.538;2022-09-02T08:25:24;25.30;99.90
48768;DHT22;34933;40.968;14.538;2022-09-02T08:28:10;25.50;99.90
48768;DHT22;34933;40.968;14.538;2022-09-02T08:30:54;25.50;99.90
48768;DHT22;34933;40.968;14.538;2022-09-02T08:33:40;25.60;99.90
48768;DHT22;34933;40.968;14.538;2022-09-02T08:36:26;25.70;99.90
48768;DHT22;34933;40.968;14.538;2022-09-02T08:39:10;25.70;99.90
48768;DHT22;34933;40.968;14.538;2022-09-02T08:42:01;25.80;99.90
48768;DHT22;34933;40.968;14.538;2022-09-02T08:44:50;25.80;99.90
48768;DHT22;34933;40.968;14.538;2022-09-02T08:47:42;25.80;99.90
48768;DHT22;34933;40.968;14.538;2022-09-02T08:50:30;25.90;99.90
48768;DHT22;34933;40.968;14.538;2022-09-02T08:53:18;25.90;99.90
48768;DHT22;34933;40.968;14.538;2022-09-02T08:56:08;26.10;99.90
48768;DHT22;34933;40.968;14.538;2022-09-02T08:58:55;26.20;99.90
48768;DHT22;34933;40.968;14.538;2022-09-02T09:11:15;26.40;99.90
48768;DHT22;34933;40.968;14.538;2022-09-02T09:16:57;26.60;99.90
48768;DHT22;34933;40.968;14.538;2022-09-02T09:19:51;26.70;99.90
48768;DHT22;34933;40.968;14.538;2022-09-02T09:22:39;26.80;99.90
48768;DHT22;34933;40.968;14.538;2022-09-02T09:25:26;27.10;99.90
48768;DHT22;34933;40.968;14.538;2022-09-02T09:28:13;27.20;99.90
48768;DHT22;34933;40.968;14.538;2022-09-02T09:30:59;27.10;99.90
48768;DHT22;34933;40.968;14.538;2022-09-02T09:33:55;27.20;99.90
48768;DHT22;34933;40.968;14.538;2022-09-02T09:39:28;27.20;99.90
48768;DHT22;34933;40.968;14.538;2022-09-02T09:42:13;27.20;99.90
48768;DHT22;34933;40.968;14.538;2022-09-02T09:44:58;27.30;99.90
48768;DHT22;34933;40.968;14.538;2022-09-02T09:47:42;27.50;99.90
48768;DHT22;34933;40.968;14.538;2022-09-02T09:50:27;27.60;99.90
48768;DHT22;34933;40.968;14.538;2022-09-02T09:53:16;27.70;99.90
48768;DHT22;34933;40.968;14.538;2022-09-02T09:56:06;27.80;99.90
48768;DHT22;34933;40.968;14.538;2022-09-02T09:59:07;27.90;99.90
48768;DHT22;34933;40.968;14.538;2022-09-02T10:01:52;28.10;99.90
48768;DHT22;34933;40.968;14.538;2022-09-02T10:04:36;28.10;99.90
48768;DHT22;34933;40.968;14.538;2022-09-02T10:08:01;28.00;99.90
48768;DHT22;34933;40.968;14.538;2022-09-02T10:11:00;28.00;99.40
48768;DHT22;34933;40.968;14.538;2022-09-02T10:13:44;28.00;99.90
48768;DHT22;34933;40.968;14.538;2022-09-02T10:26:02;28.40;99.90
48768;DHT22;34933;40.968;14.538;2022-09-02T10:41:44;28.20;99.90
48768;DHT22;34933;40.968;14.538;2022-09-02T10:44:32;28.60;99.90
48768;DHT22;34933;40.968;14.538;2022-09-02T10:47:29;29.00;99.50
48768;DHT22;34933;40.968;14.538;2022-09-02T10:50:23;29.10;99.40
48768;DHT22;34933;40.968;14.538;2022-09-02T10:53:18;28.90;98.60
48768;DHT22;34933;40.968;14.538;2022-09-02T10:59:19;29.30;98.90
48768;DHT22;34933;40.968;14.538;2022-09-02T11:02:30;29.50;98.80
48768;DHT22;34933;40.968;14.538;2022-09-02T11:05:21;29.30;98.70
48768;DHT22;34933;40.968;14.538;2022-09-02T11:20:25;29.70;97.60
48768;DHT22;34933;40.968;14.538;2022-09-02T11:22:54;30.00;97.80
48768;DHT22;34933;40.968;14.538;2022-09-02T11:25:48;30.00;98.20
48768;DHT22;34933;40.968;14.538;2022-09-02T11:28:58;30.00;98.10
48768;DHT22;34933;40.968;14.538;2022-09-02T11:31:56;30.30;97.10
48768;DHT22;34933;40.968;14.538;2022-09-02T11:34:46;30.50;97.00
48768;DHT22;34933;40.968;14.538;2022-09-02T11:37:50;30.80;95.90
48768;DHT22;34933;40.968;14.538;2022-09-02T11:43:44;30.40;96.50
48768;DHT22;34933;40.968;14.538;2022-09-02T11:46:45;30.60;96.60
48768;DHT22;34933;40.968;14.538;2022-09-02T11:55:57;30.00;96.20
48768;DHT22;34933;40.968;14.538;2022-09-02T11:58:49;30.00;96.40
48768;DHT22;34933;40.968;14.538;2022-09-02T12:01:52;30.10;96.90
48768;DHT22;34933;40.968;14.538;2022-09-02T12:04:37;30.20;96.50
48768;DHT22;34933;40.968;14.538;2022-09-02T12:07:23;30.40;95.80
48768;DHT22;34933;40.968;14.538;2022-09-02T12:10:07;30.80;95.30
48768;DHT22;34933;40.968;14.538;2022-09-02T12:15:40;31.60;94.80
48768;DHT22;34933;40.968;14.538;2022-09-02T12:18:27;31.10;94.40
48768;DHT22;34933;40.968;14.538;2022-09-02T12:21:16;31.60;94.90
48768;DHT22;34933;40.968;14.538;2022-09-02T12:24:06;32.40;93.80
48768;DHT22;34933;40.968;14.538;2022-09-02T12:29:36;32.60;93.50
48768;DHT22;34933;40.968;14.538;2022-09-02T12:35:34;33.20;92.90
48768;DHT22;34933;40.968;14.538;2022-09-02T12:38:39;33.40;92.60
48768;DHT22;34933;40.968;14.538;2022-09-02T12:41:27;33.40;93.50
48768;DHT22;34933;40.968;14.538;2022-09-02T12:44:34;33.90;92.60
48768;DHT22;34933;40.968;14.538;2022-09-02T12:50:53;35.10;91.50
48768;DHT22;34933;40.968;14.538;2022-09-02T12:53:45;34.40;92.40
48768;DHT22;34933;40.968;14.538;2022-09-02T12:56:32;33.30;93.00
48768;DHT22;34933;40.968;14.538;2022-09-02T12:59:34;32.80;93.80
48768;DHT22;34933;40.968;14.538;2022-09-02T13:05:54;33.80;93.30
48768;DHT22;34933;40.968;14.538;2022-09-02T13:23:58;35.80;91.90
48768;DHT22;34933;40.968;14.538;2022-09-02T13:27:06;36.10;91.20
48768;DHT22;34933;40.968;14.538;2022-09-02T13:33:21;37.40;90.00
48768;DHT22;34933;40.968;14.538;2022-09-02T13:36:05;37.90;89.60
48768;DHT22;34933;40.968;14.538;2022-09-02T13:38:50;38.10;87.50
48768;DHT22;34933;40.968;14.538;2022-09-02T13:41:35;37.70;87.30
48768;DHT22;34933;40.968;14.538;2022-09-02T13:44:27;37.60;88.40
48768;DHT22;34933;40.968;14.538;2022-09-02T13:47:18;38.10;88.10
48768;DHT22;34933;40.968;14.538;2022-09-02T13:50:05;38.50;87.20
48768;DHT22;34933;40.968;14.538;2022-09-02T13:52:55;38.00;86.10
48768;DHT22;34933;40.968;14.538;2022-09-02T13:55:47;37.80;85.40
48768;DHT22;34933;40.968;14.538;2022-09-02T13:58:45;37.60;85.70
48768;DHT22;34933;40.968;14.538;2022-09-02T14:01:37;37.40;86.50
48768;DHT22;34933;40.968;14.538;2022-09-02T14:04:26;37.50;86.20
48768;DHT22;34933;40.968;14.538;2022-09-02T14:07:12;38.10;87.70
48768;DHT22;34933;40.968;14.538;2022-09-02T14:10:00;37.70;85.70
48768;DHT22;34933;40.968;14.538;2022-09-02T14:12:46;37.30;86.10
48768;DHT22;34933;40.968;14.538;2022-09-02T14:15:32;37.70;86.50
48768;DHT22;34933;40.968;14.538;2022-09-02T14:18:21;38.40;84.40
48768;DHT22;34933;40.968;14.538;2022-09-02T14:21:18;37.20;85.60
48768;DHT22;34933;40.968;14.538;2022-09-02T14:24:03;36.70;87.00
48768;DHT22;34933;40.968;14.538;2022-09-02T14:26:51;36.80;86.60
48768;DHT22;34933;40.968;14.538;2022-09-02T14:29:46;37.10;87.10
48768;DHT22;34933;40.968;14.538;2022-09-02T14:32:31;38.00;84.60
48768;DHT22;34933;40.968;14.538;2022-09-02T14:38:00;37.30;84.90
48768;DHT22;34933;40.968;14.538;2022-09-02T14:40:46;38.10;85.30
48768;DHT22;34933;40.968;14.538;2022-09-02T14:43:41;39.00;82.80
48768;DHT22;34933;40.968;14.538;2022-09-02T14:46:32;38.80;82.90
48768;DHT22;34933;40.968;14.538;2022-09-02T14:52:26;39.20;82.50
48768;DHT22;34933;40.968;14.538;2022-09-02T14:58:35;39.30;81.70
48768;DHT22;34933;40.968;14.538;2022-09-02T15:01:20;39.00;81.90
48768;DHT22;34933;40.968;14.538;2022-09-02T15:04:05;39.00;82.30
48768;DHT22;34933;40.968;14.538;2022-09-02T15:06:50;38.80;83.70
48768;DHT22;34933;40.968;14.538;2022-09-02T15:09:35;38.60;82.60
48768;DHT22;34933;40.968;14.538;2022-09-02T15:12:22;38.20;83.60
48768;DHT22;34933;40.968;14.538;2022-09-02T15:15:12;38.80;83.00
48768;DHT22;34933;40.968;14.538;2022-09-02T15:17:57;39.00;82.80
48768;DHT22;34933;40.968;14.538;2022-09-02T15:20:42;39.20;82.70
48768;DHT22;34933;40.968;14.538;2022-09-02T15:23:26;38.40;83.10
48768;DHT22;34933;40.968;14.538;2022-09-02T15:26:12;38.10;84.60
48768;DHT22;34933;40.968;14.538;2022-09-02T15:28:57;37.90;84.40
48768;DHT22;34933;40.968;14.538;2022-09-02T15:31:41;37.70;84.30
48768;DHT22;34933;40.968;14.538;2022-09-02T15:34:26;37.60;84.50
48768;DHT22;34933;40.968;14.538;2022-09-02T15:37:12;37.30;84.90
48768;DHT22;34933;40.968;14.538;2022-09-02T15:39:56;37.00;85.60
48768;DHT22;34933;40.968;14.538;2022-09-02T15:42:41;37.30;84.90
48768;DHT22;34933;40.968;14.538;2022-09-02T15:45:26;36.90;86.00
48768;DHT22;34933;40.968;14.538;2022-09-02T15:48:11;36.60;85.80
48768;DHT22;34933;40.968;14.538;2022-09-02T15:50:55;36.40;87.40
48768;DHT22;34933;40.968;14.538;2022-09-02T15:53:40;35.90;87.70
48768;DHT22;34933;40.968;14.538;2022-09-02T15:56:27;35.10;87.80
48768;DHT22;34933;40.968;14.538;2022-09-02T15:59:14;34.80;88.90
48768;DHT22;34933;40.968;14.538;2022-09-02T16:01:59;34.20;90.10
48768;DHT22;34933;40.968;14.538;2022-09-02T16:04:44;33.90;90.60
48768;DHT22;34933;40.968;14.538;2022-09-02T16:07:28;34.00;90.40
48768;DHT22;34933;40.968;14.538;2022-09-02T16:10:13;34.10;90.20
48768;DHT22;34933;40.968;14.538;2022-09-02T16:12:58;34.20;89.90
48768;DHT22;34933;40.968;14.538;2022-09-02T16:15:43;34.20;90.20
48768;DHT22;34933;40.968;14.538;2022-09-02T16:18:28;33.90;90.70
48768;DHT22;34933;40.968;14.538;2022-09-02T16:21:12;34.40;90.60
48768;DHT22;34933;40.968;14.538;2022-09-02T16:23:57;33.70;90.70
48768;DHT22;34933;40.968;14.538;2022-09-02T16:26:42;33.60;90.80
48768;DHT22;34933;40.968;14.538;2022-09-02T16:29:27;33.60;90.90
48768;DHT22;34933;40.968;14.538;2022-09-02T16:32:13;33.70;91.00
48768;DHT22;34933;40.968;14.538;2022-09-02T16:34:57;33.60;90.60
48768;DHT22;34933;40.968;14.538;2022-09-02T16:37:42;33.60;90.70
48768;DHT22;34933;40.968;14.538;2022-09-02T16:40:27;33.20;91.10
48768;DHT22;34933;40.968;14.538;2022-09-02T16:43:12;32.40;91.80
48768;DHT22;34933;40.968;14.538;2022-09-02T16:45:59;32.00;92.40
48768;DHT22;34933;40.968;14.538;2022-09-02T16:48:47;31.60;92.70
48768;DHT22;34933;40.968;14.538;2022-09-02T16:51:32;31.10;93.50
48768;DHT22;34933;40.968;14.538;2022-09-02T16:54:17;30.90;93.90
48768;DHT22;34933;40.968;14.538;2022-09-02T16:57:03;30.30;94.30
48768;DHT22;34933;40.968;14.538;2022-09-02T16:59:48;29.60;95.10
48768;DHT22;34933;40.968;14.538;2022-09-02T17:02:32;29.10;95.90
48768;DHT22;34933;40.968;14.538;2022-09-02T17:05:17;28.70;96.60
48768;DHT22;34933;40.968;14.538;2022-09-02T17:08:02;28.50;97.10
48768;DHT22;34933;40.968;14.538;2022-09-02T17:10:46;28.20;97.50
48768;DHT22;34933;40.968;14.538;2022-09-02T17:13:31;28.00;98.20
48768;DHT22;34933;40.968;14.538;2022-09-02T17:16:16;27.80;98.50
48768;DHT22;34933;40.968;14.538;2022-09-02T17:19:02;27.60;98.80
48768;DHT22;34933;40.968;14.538;2022-09-02T17:21:48;27.40;98.90
48768;DHT22;34933;40.968;14.538;2022-09-02T17:24:36;27.30;99.00
48768;DHT22;34933;40.968;14.538;2022-09-02T17:27:24;27.20;99.30
48768;DHT22;34933;40.968;14.538;2022-09-02T17:30:10;27.00;99.60
48768;DHT22;34933;40.968;14.538;2022-09-02T17:32:55;26.80;99.80
48768;DHT22;34933;40.968;14.538;2022-09-02T17:35:41;26.70;99.90
48768;DHT22;34933;40.968;14.538;2022-09-02T17:38:26;26.50;99.90
48768;DHT22;34933;40.968;14.538;2022-09-02T17:41:11;26.40;99.90
48768;DHT22;34933;40.968;14.538;2022-09-02T17:44:16;26.30;99.90
48768;DHT22;34933;40.968;14.538;2022-09-02T17:47:15;26.20;99.90
48768;DHT22;34933;40.968;14.538;2022-09-02T17:49:59;26.00;99.90
48768;DHT22;34933;40.968;14.538;2022-09-02T17:52:44;25.90;99.90
48768;DHT22;34933;40.968;14.538;2022-09-02T17:55:32;25.80;99.90
48768;DHT22;34933;40.968;14.538;2022-09-02T17:58:20;25.70;99.90
48768;DHT22;34933;40.968;14.538;2022-09-02T18:01:05;25.60;99.90
48768;DHT22;34933;40.968;14.538;2022-09-02T18:04:02;25.60;99.90
48768;DHT22;34933;40.968;14.538;2022-09-02T18:06:49;25.50;99.90
48768;DHT22;34933;40.968;14.538;2022-09-02T18:09:37;25.40;99.90
48768;DHT22;34933;40.968;14.538;2022-09-02T18:12:22;25.30;99.90
48768;DHT22;34933;40.968;14.538;2022-09-02T18:15:09;25.20;99.90
48768;DHT22;34933;40.968;14.538;2022-09-02T18:17:56;25.10;99.90
48768;DHT22;34933;40.968;14.538;2022-09-02T18:20:42;25.00;99.90
48768;DHT22;34933;40.968;14.538;2022-09-02T18:30:08;24.70;99.90
48768;DHT22;34933;40.968;14.538;2022-09-02T18:36:23;24.60;99.90
48768;DHT22;34933;40.968;14.538;2022-09-02T18:48:11;24.40;99.90
48768;DHT22;34933;40.968;14.538;2022-09-02T18:50:59;24.40;99.90
48768;DHT22;34933;40.968;14.538;2022-09-02T18:53:50;24.40;99.90
48768;DHT22;34933;40.968;14.538;2022-09-02T18:56:43;24.30;99.90
48768;DHT22;34933;40.968;14.538;2022-09-02T18:59:36;24.30;99.90
48768;DHT22;34933;40.968;14.538;2022-09-02T19:02:31;24.30;99.90
48768;DHT22;34933;40.968;14.538;2022-09-02T19:05:20;24.30;99.90
48768;DHT22;34933;40.968;14.538;2022-09-02T19:08:10;24.20;99.90
48768;DHT22;34933;40.968;14.538;2022-09-02T19:11:15;24.10;99.90
48768;DHT22;34933;40.968;14.538;2022-09-02T19:17:09;24.00;99.90
48768;DHT22;34933;40.968;14.538;2022-09-02T19:19:55;24.00;99.90
48768;DHT22;34933;40.968;14.538;2022-09-02T19:22:46;23.90;99.90
48768;DHT22;34933;40.968;14.538;2022-09-02T19:25:34;23.90;99.90
48768;DHT22;34933;40.968;14.538;2022-09-02T19:28:20;23.80;99.90
48768;DHT22;34933;40.968;14.538;2022-09-02T19:31:06;23.80;99.90